createdAt,value
2023-02-11T00:00:44.341Z,6.30
2023-02-11T00:03:11.496Z,6.20
2023-02-11T00:05:38.688Z,6.20
2023-02-11T00:08:05.652Z,6.20
2023-02-11T00:10:32.885Z,6.30
2023-02-11T00:12:59.829Z,6.30
2023-02-11T00:15:26.973Z,6.30
2023-02-11T00:17:53.939Z,6.50
2023-02-11T00:20:21.012Z,6.40
2023-02-11T00:22:47.957Z,6.40
2023-02-11T00:25:14.952Z,6.70
2023-02-11T00:27:41.921Z,6.60
2023-02-11T00:30:10.349Z,6.40
2023-02-11T00:32:37.576Z,6.50
2023-02-11T00:35:05.020Z,6.70
2023-02-11T00:37:32.059Z,6.50
2023-02-11T00:39:59.337Z,6.80
2023-02-11T00:42:26.384Z,6.70
2023-02-11T00:44:53.518Z,6.80
2023-02-11T00:47:20.539Z,6.80
2023-02-11T00:49:47.691Z,6.90
2023-02-11T00:52:14.736Z,6.90
2023-02-11T00:54:41.762Z,7.00
2023-02-11T00:57:08.782Z,7.10
2023-02-11T00:59:36.097Z,7.20
2023-02-11T01:02:03.182Z,7.20
2023-02-11T01:04:30.192Z,7.30
2023-02-11T01:06:57.162Z,7.40
2023-02-11T01:09:24.086Z,7.50
2023-02-11T01:11:51.083Z,7.40
2023-02-11T01:14:18.147Z,7.40
2023-02-11T01:16:45.214Z,7.50
2023-02-11T01:19:12.580Z,7.30
2023-02-11T01:21:39.648Z,7.40
2023-02-11T01:24:07.256Z,7.40
2023-02-11T01:26:34.426Z,7.40
2023-02-11T01:29:01.681Z,7.60
2023-02-11T01:31:30.253Z,7.40
2023-02-11T01:33:57.359Z,7.40
2023-02-11T01:36:24.568Z,7.60
2023-02-11T01:38:51.816Z,7.40
2023-02-11T01:41:18.920Z,7.50
2023-02-11T01:43:49.030Z,7.60
2023-02-11T01:46:36.679Z,7.80
2023-02-11T01:49:13.440Z,7.50
2023-02-11T01:52:05.644Z,7.80
2023-02-11T01:54:55.029Z,7.60
2023-02-11T01:57:26.859Z,7.60
2023-02-11T02:00:03.534Z,7.60
2023-02-11T02:02:41.210Z,7.70
2023-02-11T02:05:29.614Z,7.70
2023-02-11T02:08:09.103Z,7.70
2023-02-11T02:10:40.996Z,7.60
2023-02-11T02:13:08.122Z,7.70
2023-02-11T02:15:38.602Z,7.70
2023-02-11T02:18:36.841Z,7.70
2023-02-11T02:21:28.763Z,7.70
2023-02-11T02:24:14.110Z,7.70
2023-02-11T02:27:01.481Z,7.70
2023-02-11T02:30:05.731Z,7.70
2023-02-11T02:32:41.896Z,7.70
2023-02-11T02:35:33.941Z,7.90
2023-02-11T02:38:30.800Z,7.70
2023-02-11T02:41:09.298Z,7.80
2023-02-11T02:43:44.715Z,7.80
2023-02-11T02:46:16.982Z,8.00
2023-02-11T02:48:44.940Z,7.70
2023-02-11T02:51:39.233Z,7.90
2023-02-11T02:54:48.225Z,7.70
2023-02-11T02:57:42.025Z,7.70
2023-02-11T03:00:29.940Z,7.70
2023-02-11T03:03:15.134Z,7.70
2023-02-11T03:06:01.362Z,7.70
2023-02-11T03:08:43.911Z,7.70
2023-02-11T03:11:14.516Z,7.60
2023-02-11T03:13:44.338Z,7.80
2023-02-11T03:16:19.862Z,7.80
2023-02-11T03:18:52.903Z,7.60
2023-02-11T03:21:21.128Z,7.70
2023-02-11T03:23:55.273Z,7.70
2023-02-11T03:26:54.650Z,7.70
2023-02-11T03:29:36.733Z,7.80
2023-02-11T03:32:06.670Z,7.80
2023-02-11T03:35:07.763Z,7.70
2023-02-11T03:37:43.579Z,7.80
2023-02-11T03:40:15.063Z,7.80
2023-02-11T03:42:46.280Z,7.80
2023-02-11T03:45:17.278Z,7.80
2023-02-11T03:47:49.555Z,8.00
2023-02-11T03:50:18.596Z,7.90
2023-02-11T03:52:47.203Z,8.00
2023-02-11T03:55:17.961Z,8.00
2023-02-11T03:57:45.128Z,7.80
2023-02-11T04:00:13.226Z,8.00
2023-02-11T04:02:41.297Z,7.80
2023-02-11T04:05:10.838Z,7.80
2023-02-11T04:07:37.820Z,8.00
2023-02-11T04:10:05.882Z,8.00
2023-02-11T04:12:33.128Z,7.80
2023-02-11T04:15:00.201Z,7.90
2023-02-11T04:17:27.548Z,7.70
2023-02-11T04:19:55.001Z,7.80
2023-02-11T04:22:22.174Z,7.70
2023-02-11T04:24:49.257Z,7.70
2023-02-11T04:27:16.466Z,7.90
2023-02-11T04:29:43.596Z,7.70
2023-02-11T04:32:12.488Z,7.70
2023-02-11T04:34:39.969Z,7.90
2023-02-11T04:37:07.450Z,7.70
2023-02-11T04:39:35.371Z,7.70
2023-02-11T04:42:02.957Z,7.70
2023-02-11T04:44:30.218Z,7.70
2023-02-11T04:46:57.699Z,7.70
2023-02-11T04:49:25.028Z,7.70
2023-02-11T04:51:52.195Z,7.60
2023-02-11T04:54:20.267Z,7.80
2023-02-11T04:56:47.555Z,7.80
2023-02-11T04:59:14.768Z,7.60
2023-02-11T05:01:42.351Z,7.60
2023-02-11T05:04:09.609Z,7.50
2023-02-11T05:06:40.375Z,7.70
2023-02-11T05:09:07.961Z,7.40
2023-02-11T05:11:37.035Z,7.40
2023-02-11T05:14:04.812Z,7.30
2023-02-11T05:16:32.879Z,7.40
2023-02-11T05:19:00.255Z,7.40
2023-02-11T05:21:27.831Z,7.30
2023-02-11T05:23:55.761Z,7.30
2023-02-11T05:26:23.384Z,7.30
2023-02-11T05:28:52.969Z,7.30
2023-02-11T05:31:20.291Z,7.30
2023-02-11T05:33:48.219Z,7.30
2023-02-11T05:36:16.973Z,7.30
2023-02-11T05:38:44.126Z,7.50
2023-02-11T05:41:11.689Z,7.40
2023-02-11T05:43:38.816Z,7.40
2023-02-11T05:46:06.484Z,7.40
2023-02-11T05:48:33.548Z,7.40
2023-02-11T05:51:00.537Z,7.40
2023-02-11T05:53:27.480Z,7.50
2023-02-11T05:55:54.404Z,7.40
2023-02-11T05:58:21.269Z,7.50
2023-02-11T06:00:48.158Z,7.50
2023-02-11T06:03:15.237Z,7.50
2023-02-11T06:05:43.611Z,7.50
2023-02-11T06:08:10.583Z,7.50
2023-02-11T06:10:37.545Z,7.50
2023-02-11T06:13:04.592Z,7.60
2023-02-11T06:15:31.494Z,7.50
2023-02-11T06:17:58.308Z,7.50
2023-02-11T06:20:25.224Z,7.50
2023-02-11T06:22:52.147Z,7.80
2023-02-11T06:25:19.176Z,7.50
2023-02-11T06:27:46.219Z,7.50
2023-02-11T06:30:13.847Z,7.60
2023-02-11T06:32:45.471Z,7.60
2023-02-11T06:35:14.494Z,7.60
2023-02-11T06:37:41.710Z,7.70
2023-02-11T06:40:09.711Z,7.60
2023-02-11T06:42:38.677Z,7.70
2023-02-11T06:45:06.208Z,7.70
2023-02-11T06:47:33.150Z,7.70
2023-02-11T06:50:00.342Z,7.70
2023-02-11T06:52:27.299Z,7.70
2023-02-11T06:54:54.194Z,7.70
2023-02-11T06:57:21.195Z,7.70
2023-02-11T06:59:48.316Z,7.70
2023-02-11T07:02:15.459Z,7.80
2023-02-11T07:04:42.412Z,7.90
2023-02-11T07:07:09.267Z,8.00
2023-02-11T07:09:36.157Z,8.00
2023-02-11T07:12:03.176Z,8.00
2023-02-11T07:14:30.122Z,8.00
2023-02-11T07:16:57.006Z,8.00
2023-02-11T07:19:24.054Z,8.00
2023-02-11T07:21:52.058Z,8.00
2023-02-11T07:24:18.919Z,8.00
2023-02-11T07:26:45.778Z,8.10
2023-02-11T07:29:12.711Z,8.10
2023-02-11T07:31:39.788Z,8.10
2023-02-11T07:34:06.807Z,8.10
2023-02-11T07:36:33.761Z,8.30
2023-02-11T07:39:00.643Z,8.20
2023-02-11T07:41:28.193Z,8.10
2023-02-11T07:43:55.588Z,8.30
2023-02-11T07:46:25.036Z,8.20
2023-02-11T07:48:52.415Z,8.20
2023-02-11T07:51:25.028Z,8.30
2023-02-11T07:53:52.297Z,8.20
2023-02-11T07:56:20.844Z,8.50
2023-02-11T07:58:48.162Z,8.20
2023-02-11T08:01:18.569Z,8.40
2023-02-11T08:03:45.571Z,8.30
2023-02-11T08:06:15.033Z,8.30
2023-02-11T08:08:42.350Z,8.30
2023-02-11T08:11:12.481Z,8.40
2023-02-11T08:13:39.569Z,8.40
2023-02-11T08:16:07.851Z,8.70
2023-02-11T08:18:35.896Z,8.50
2023-02-11T08:21:08.067Z,8.60
2023-02-11T08:23:39.443Z,8.60
2023-02-11T08:26:13.199Z,8.80
2023-02-11T08:28:41.609Z,8.70
2023-02-11T08:31:11.520Z,8.70
2023-02-11T08:33:40.604Z,8.70
2023-02-11T08:36:13.571Z,8.70
2023-02-11T08:38:40.807Z,8.60
2023-02-11T08:41:08.386Z,9.00
2023-02-11T08:43:36.651Z,8.70
2023-02-11T08:46:04.088Z,8.70
2023-02-11T08:48:31.645Z,8.70
2023-02-11T08:50:58.773Z,8.70
2023-02-11T08:53:27.094Z,8.70
2023-02-11T08:55:55.416Z,8.70
2023-02-11T08:58:22.648Z,8.70
2023-02-11T09:00:53.607Z,8.70
2023-02-11T09:03:20.962Z,8.80
2023-02-11T09:05:53.327Z,8.80
2023-02-11T09:08:21.274Z,8.80
2023-02-11T09:10:48.512Z,8.80
2023-02-11T09:13:16.874Z,8.90
2023-02-11T09:15:46.974Z,8.90
2023-02-11T09:18:14.508Z,8.90
2023-02-11T09:20:41.900Z,8.90
2023-02-11T09:23:10.352Z,8.90
2023-02-11T09:25:40.790Z,8.90
2023-02-11T09:28:09.148Z,9.00
2023-02-11T09:30:39.373Z,9.00
2023-02-11T09:33:06.480Z,9.20
2023-02-11T09:35:33.808Z,9.00
2023-02-11T09:38:01.276Z,9.10
2023-02-11T09:40:28.416Z,8.90
2023-02-11T09:43:12.735Z,8.90
2023-02-11T09:45:39.749Z,8.90
2023-02-11T09:48:16.166Z,8.90
2023-02-11T09:50:47.262Z,8.90
2023-02-11T09:53:38.374Z,9.10
2023-02-11T09:56:13.508Z,8.90
2023-02-11T09:58:43.325Z,8.90
2023-02-11T10:01:29.087Z,8.90
2023-02-11T10:04:25.841Z,8.90
2023-02-11T10:07:02.952Z,8.90
2023-02-11T10:10:09.107Z,8.90
2023-02-11T10:13:00.429Z,8.90
2023-02-11T10:16:05.234Z,9.00
2023-02-11T10:18:41.497Z,9.00
2023-02-11T10:21:24.698Z,9.00
2023-02-11T10:23:56.448Z,9.00
2023-02-11T10:26:26.502Z,9.30
2023-02-11T10:28:55.917Z,9.00
2023-02-11T10:31:27.743Z,9.00
2023-02-11T10:34:04.757Z,9.00
2023-02-11T10:36:35.104Z,9.00
2023-02-11T10:39:18.170Z,9.00
2023-02-11T10:41:52.647Z,9.00
2023-02-11T10:44:42.486Z,9.00
2023-02-11T10:47:22.541Z,9.00
2023-02-11T10:49:50.042Z,9.00
2023-02-11T10:52:20.285Z,9.10
2023-02-11T10:55:02.212Z,9.00
2023-02-11T10:57:39.631Z,9.10
2023-02-11T11:00:22.041Z,9.20
2023-02-11T11:02:58.930Z,9.20
2023-02-11T11:05:51.961Z,9.20
2023-02-11T11:08:19.898Z,9.20
2023-02-11T11:11:07.348Z,9.20
2023-02-11T11:13:36.803Z,9.40
2023-02-11T11:16:29.865Z,9.20
2023-02-11T11:19:09.178Z,9.20
2023-02-11T11:21:48.269Z,9.40
2023-02-11T11:24:29.894Z,9.50
2023-02-11T11:27:01.015Z,9.20
2023-02-11T11:29:39.244Z,9.50
2023-02-11T11:32:17.331Z,9.30
2023-02-11T11:34:51.093Z,9.30
2023-02-11T11:37:26.062Z,9.30
2023-02-11T11:40:07.827Z,9.30
2023-02-11T11:42:37.009Z,9.40
2023-02-11T11:45:26.421Z,9.60
2023-02-11T12:24:05.449Z,10.00
2023-02-11T13:15:14.340Z,9.90
2023-02-11T13:29:45.894Z,10.10
2023-02-11T13:59:12.470Z,10.30
2023-02-11T14:14:38.467Z,10.30
2023-02-11T14:58:41.631Z,10.30
2023-02-11T15:19:54.988Z,10.20
2023-02-11T15:22:42.372Z,10.30
2023-02-11T15:25:21.348Z,10.30
2023-02-11T15:50:45.988Z,10.30
2023-02-11T15:53:26.459Z,10.30
2023-02-11T15:56:06.920Z,10.30
2023-02-11T15:58:52.062Z,10.10
2023-02-11T16:23:18.265Z,10.00
2023-02-11T17:20:50.712Z,9.80
2023-02-11T17:32:26.110Z,9.70
2023-02-11T17:44:05.139Z,9.70
2023-02-11T17:46:41.759Z,9.50
2023-02-11T18:02:25.456Z,9.60
2023-02-11T18:04:53.236Z,10.20
2023-02-11T18:07:20.241Z,10.00
2023-02-11T18:09:47.141Z,9.90
2023-02-11T18:12:14.143Z,9.90
2023-02-11T18:14:41.555Z,9.80
2023-02-11T18:17:08.665Z,9.80
2023-02-11T18:19:36.543Z,9.80
2023-02-11T18:22:04.411Z,9.80
2023-02-11T18:24:31.822Z,9.80
2023-02-11T18:26:58.758Z,9.80
2023-02-11T18:29:25.710Z,9.80
2023-02-11T18:31:56.670Z,10.00
2023-02-11T18:34:25.174Z,9.90
2023-02-11T18:36:52.363Z,9.90
2023-02-11T18:39:19.975Z,10.00
2023-02-11T18:41:47.246Z,9.80
2023-02-11T18:44:22.067Z,9.80
2023-02-11T18:46:48.990Z,9.80
2023-02-11T18:49:15.897Z,9.80
2023-02-11T18:51:42.743Z,9.80
2023-02-11T18:54:09.621Z,9.80
2023-02-11T18:56:36.483Z,9.80
2023-02-11T18:59:03.711Z,9.80
2023-02-11T19:01:33.679Z,9.80
2023-02-11T19:04:04.394Z,9.80
2023-02-11T19:06:36.858Z,9.80
2023-02-11T19:09:07.713Z,9.90
2023-02-11T19:11:54.388Z,9.90
2023-02-11T19:14:27.401Z,9.70
2023-02-11T19:16:57.183Z,9.80
2023-02-11T19:19:28.333Z,9.80
2023-02-11T19:21:56.106Z,9.80
2023-02-11T19:24:24.106Z,10.00
2023-02-11T19:26:52.768Z,9.70
2023-02-11T19:29:19.951Z,9.80
2023-02-11T19:31:46.994Z,9.70
2023-02-11T19:34:16.099Z,9.70
2023-02-11T19:36:43.457Z,9.70
2023-02-11T19:39:10.507Z,9.70
2023-02-11T19:41:37.796Z,9.70
2023-02-11T19:44:06.060Z,9.70
2023-02-11T19:46:35.348Z,9.70
2023-02-11T19:49:03.213Z,9.70
2023-02-11T19:51:30.820Z,9.90
2023-02-11T19:53:58.332Z,9.70
2023-02-11T19:56:25.389Z,9.70
2023-02-11T19:58:52.336Z,9.80
2023-02-11T20:01:21.889Z,9.70
2023-02-11T20:03:50.466Z,9.70
2023-02-11T20:06:23.520Z,9.70
2023-02-11T20:08:59.172Z,9.70
2023-02-11T20:11:28.349Z,9.70
2023-02-11T20:13:56.183Z,9.70
2023-02-11T20:16:37.093Z,9.80
2023-02-11T20:19:16.896Z,10.00
2023-02-11T20:21:46.790Z,9.80
2023-02-11T20:24:14.554Z,9.70
2023-02-11T20:26:42.434Z,9.70
2023-02-11T20:29:09.520Z,10.00
2023-02-11T20:31:36.827Z,9.70
2023-02-11T20:34:04.348Z,9.70
2023-02-11T20:36:35.525Z,9.70
2023-02-11T20:39:05.280Z,9.70
2023-02-11T20:41:34.584Z,9.70
2023-02-11T20:44:04.759Z,9.60
2023-02-11T20:46:33.940Z,9.70
2023-02-11T20:49:01.873Z,9.70
2023-02-11T20:51:32.038Z,9.70
2023-02-11T20:53:59.980Z,9.70
2023-02-11T20:56:30.439Z,9.70
2023-02-11T20:58:59.110Z,9.70
2023-02-11T21:01:47.946Z,9.70
2023-02-11T21:04:18.217Z,9.80
2023-02-11T21:06:48.055Z,9.70
2023-02-11T21:09:19.912Z,9.70
2023-02-11T21:11:47.651Z,9.70
2023-02-11T21:14:15.784Z,9.80
2023-02-11T21:16:42.789Z,9.70
2023-02-11T21:19:09.808Z,9.70
2023-02-11T21:21:38.572Z,9.70
2023-02-11T21:24:07.651Z,9.70
2023-02-11T21:26:35.602Z,9.70
2023-02-11T21:29:04.724Z,9.80
2023-02-11T21:31:33.268Z,9.70
2023-02-11T21:34:00.584Z,9.80
2023-02-11T21:36:29.449Z,9.70
2023-02-11T21:38:56.724Z,9.70
2023-02-11T21:41:24.736Z,9.70
2023-02-11T21:43:52.244Z,9.70
2023-02-11T21:46:20.528Z,9.70
2023-02-11T21:48:47.711Z,9.80
2023-02-11T21:51:20.654Z,9.70
2023-02-11T21:53:48.149Z,9.70
2023-02-11T21:56:17.514Z,9.70
2023-02-11T21:58:45.763Z,9.90
2023-02-11T22:01:18.164Z,9.80
2023-02-11T22:03:46.150Z,9.70
2023-02-11T22:06:21.299Z,9.70
2023-02-11T22:08:51.516Z,9.70
2023-02-11T22:11:22.061Z,9.70
2023-02-11T22:13:54.096Z,9.70
2023-02-11T22:16:21.198Z,9.80
2023-02-11T22:18:48.182Z,9.70
2023-02-11T22:21:20.866Z,9.70
2023-02-11T22:23:48.648Z,9.70
2023-02-11T22:26:18.690Z,9.70
2023-02-11T22:28:46.231Z,9.70
2023-02-11T22:31:16.565Z,9.80
2023-02-11T22:33:43.579Z,9.70
2023-02-11T22:36:26.152Z,9.80
2023-02-11T22:38:53.849Z,9.80
2023-02-11T22:41:22.053Z,9.80
2023-02-11T22:43:49.333Z,9.80
2023-02-11T22:46:19.409Z,9.70
2023-02-11T22:48:47.551Z,9.70
2023-02-11T22:51:21.670Z,9.80
2023-02-11T22:53:56.304Z,9.70
2023-02-11T22:56:24.250Z,9.80
2023-02-11T22:58:52.065Z,9.80
2023-02-11T23:01:21.874Z,9.80
2023-02-11T23:03:49.328Z,9.80
2023-02-11T23:06:16.863Z,9.60
2023-02-11T23:08:44.541Z,9.70
2023-02-11T23:11:24.018Z,9.70
2023-02-11T23:13:52.826Z,9.70
2023-02-11T23:16:22.769Z,9.80
2023-02-11T23:18:50.890Z,9.70
2023-02-11T23:21:30.230Z,9.70
2023-02-11T23:24:02.780Z,9.70
2023-02-11T23:26:29.967Z,9.70
2023-02-11T23:28:59.162Z,9.90
2023-02-11T23:31:39.810Z,9.70
2023-02-11T23:34:08.416Z,9.70
2023-02-11T23:36:36.767Z,9.80
2023-02-11T23:39:04.773Z,9.70
2023-02-11T23:41:32.252Z,9.70
2023-02-11T23:43:59.628Z,9.70
2023-02-11T23:46:27.743Z,9.80
2023-02-11T23:48:54.979Z,9.70
2023-02-11T23:51:22.426Z,9.80
2023-02-11T23:53:50.390Z,9.80
2023-02-11T23:56:20.560Z,9.80
2023-02-11T23:58:49.295Z,9.80
